createdAt,value
2023-04-12T00:02:30.612Z,99.97
2023-04-12T00:05:02.989Z,99.90
2023-04-12T00:07:34.958Z,99.85
2023-04-12T00:10:09.587Z,99.97
2023-04-12T00:12:41.918Z,100.00
2023-04-12T00:15:14.126Z,100.00
2023-04-12T00:17:47.980Z,100.00
2023-04-12T00:20:19.912Z,100.00
2023-04-12T00:22:52.000Z,100.00
2023-04-12T00:25:24.130Z,100.00
2023-04-12T00:27:56.199Z,100.00
2023-04-12T00:30:28.573Z,100.00
2023-04-12T00:33:00.738Z,100.00
2023-04-12T00:35:32.580Z,100.00
2023-04-12T00:38:10.241Z,100.00
2023-04-12T00:40:45.157Z,100.00
2023-04-12T00:43:18.827Z,100.00
2023-04-12T00:45:51.821Z,100.00
2023-04-12T00:48:23.635Z,100.00
2023-04-12T00:50:57.686Z,100.00
2023-04-12T00:53:30.770Z,100.00
2023-04-12T00:56:03.527Z,100.00
2023-04-12T00:58:35.293Z,100.00
2023-04-12T01:01:07.663Z,100.00
2023-04-12T01:03:43.035Z,100.00
2023-04-12T01:06:26.988Z,100.00
2023-04-12T01:09:03.389Z,100.00
2023-04-12T01:11:39.204Z,100.00
2023-04-12T01:14:18.775Z,100.00
2023-04-12T01:16:55.158Z,100.00
2023-04-12T01:19:53.776Z,100.00
2023-04-12T01:22:38.425Z,100.00
2023-04-12T01:25:27.301Z,100.00
2023-04-12T01:28:03.532Z,100.00
2023-04-12T01:30:37.547Z,100.00
2023-04-12T01:33:12.628Z,100.00
2023-04-12T01:35:45.553Z,100.00
2023-04-12T01:38:17.588Z,100.00
2023-04-12T01:40:50.861Z,100.00
2023-04-12T01:43:23.927Z,100.00
2023-04-12T01:45:55.774Z,100.00
2023-04-12T01:48:27.629Z,100.00
2023-04-12T01:51:13.128Z,100.00
2023-04-12T01:53:50.377Z,100.00
2023-04-12T01:56:23.400Z,100.00
2023-04-12T01:58:57.134Z,100.00
2023-04-12T02:01:31.014Z,100.00
2023-04-12T02:04:04.716Z,100.00
2023-04-12T02:06:37.681Z,100.00
2023-04-12T02:09:10.137Z,99.97
2023-04-12T02:11:42.963Z,99.64
2023-04-12T02:14:13.877Z,99.70
2023-04-12T02:16:45.694Z,99.58
2023-04-12T02:19:17.697Z,99.73
2023-04-12T02:21:49.895Z,100.00
2023-04-12T02:24:21.761Z,99.90
2023-04-12T02:26:54.894Z,99.60
2023-04-12T02:29:27.334Z,99.41
2023-04-12T02:31:59.023Z,99.72
2023-04-12T02:34:36.748Z,100.00
2023-04-12T02:37:24.502Z,99.92
2023-04-12T02:39:57.079Z,99.24
2023-04-12T02:42:28.960Z,99.15
2023-04-12T02:45:01.236Z,99.30
2023-04-12T02:47:33.331Z,99.05
2023-04-12T02:50:06.123Z,99.21
2023-04-12T02:52:40.382Z,99.43
2023-04-12T02:55:13.937Z,99.83
2023-04-12T02:57:47.529Z,99.52
2023-04-12T03:00:20.121Z,99.28
2023-04-12T03:02:55.238Z,98.69
2023-04-12T03:05:30.122Z,98.22
2023-04-12T03:08:02.450Z,98.50
2023-04-12T03:10:41.565Z,97.95
2023-04-12T03:13:13.480Z,97.63
2023-04-12T03:15:50.577Z,97.86
2023-04-12T03:18:23.539Z,98.77
2023-04-12T03:20:54.164Z,98.89
2023-04-12T03:23:25.997Z,99.00
2023-04-12T03:26:06.179Z,98.89
2023-04-12T03:28:38.923Z,98.72
2023-04-12T03:31:12.617Z,98.82
2023-04-12T03:33:48.860Z,99.09
2023-04-12T03:36:29.480Z,99.21
2023-04-12T03:39:06.509Z,99.41
2023-04-12T03:41:40.694Z,99.52
2023-04-12T03:44:13.201Z,99.41
2023-04-12T03:46:45.627Z,98.94
2023-04-12T03:49:17.662Z,99.03
2023-04-12T03:51:52.409Z,99.09
2023-04-12T03:54:24.486Z,99.19
2023-04-12T03:57:02.122Z,98.95
2023-04-12T03:59:41.386Z,99.10
2023-04-12T04:02:13.319Z,99.17
2023-04-12T04:04:50.479Z,99.77
2023-04-12T04:07:29.986Z,99.49
2023-04-12T04:10:02.802Z,99.12
2023-04-12T04:12:37.884Z,99.38
2023-04-12T04:15:12.390Z,99.63
2023-04-12T04:17:47.476Z,99.73
2023-04-12T04:20:20.402Z,99.95
2023-04-12T04:22:54.481Z,100.00
2023-04-12T04:25:30.509Z,99.94
2023-04-12T04:28:06.177Z,99.93
2023-04-12T04:30:39.251Z,100.00
2023-04-12T04:33:12.625Z,99.83
2023-04-12T04:35:45.368Z,99.53
2023-04-12T04:38:27.222Z,99.57
2023-04-12T04:41:05.590Z,99.80
2023-04-12T04:43:50.380Z,100.00
2023-04-12T04:46:22.802Z,100.00
2023-04-12T04:48:55.180Z,100.00
2023-04-12T04:51:27.551Z,100.00
2023-04-12T04:53:59.891Z,100.00
2023-04-12T04:56:32.688Z,100.00
2023-04-12T04:59:03.270Z,100.00
2023-04-12T05:01:36.364Z,100.00
2023-04-12T05:04:08.567Z,100.00
2023-04-12T05:06:40.604Z,100.00
2023-04-12T05:09:13.633Z,100.00
2023-04-12T05:11:51.215Z,100.00
2023-04-12T05:14:23.393Z,100.00
2023-04-12T05:16:56.642Z,99.99
2023-04-12T05:19:29.166Z,99.96
2023-04-12T05:22:01.874Z,99.81
2023-04-12T05:24:33.811Z,100.00
2023-04-12T05:27:09.036Z,100.00
2023-04-12T05:29:41.785Z,99.95
2023-04-12T05:32:14.444Z,99.40
2023-04-12T05:34:46.322Z,99.16
2023-04-12T05:37:18.354Z,99.31
2023-04-12T05:39:50.445Z,99.89
2023-04-12T05:42:23.304Z,99.65
2023-04-12T05:44:56.412Z,100.00
2023-04-12T05:47:29.020Z,99.98
2023-04-12T05:50:01.418Z,99.96
2023-04-12T05:52:32.353Z,100.00
2023-04-12T05:55:05.129Z,100.00
2023-04-12T05:57:37.728Z,100.00
2023-04-12T06:00:17.556Z,100.00
2023-04-12T06:02:50.496Z,99.89
2023-04-12T06:05:23.434Z,99.29
2023-04-12T06:07:55.378Z,98.49
2023-04-12T06:10:27.153Z,98.60
2023-04-12T06:12:58.937Z,99.05
2023-04-12T06:15:32.158Z,99.23
2023-04-12T06:18:02.609Z,98.87
2023-04-12T06:20:34.587Z,99.01
2023-04-12T06:23:06.791Z,98.87
2023-04-12T06:25:39.785Z,98.69
2023-04-12T06:28:10.436Z,98.33
2023-04-12T06:30:48.512Z,98.40
2023-04-12T06:33:22.459Z,98.27
2023-04-12T06:35:54.934Z,97.94
2023-04-12T06:38:26.411Z,97.64
2023-04-12T06:40:58.835Z,97.39
2023-04-12T06:43:30.618Z,97.61
2023-04-12T06:46:03.373Z,97.19
2023-04-12T06:48:33.652Z,97.35
2023-04-12T06:51:05.616Z,98.21
2023-04-12T06:53:39.165Z,97.61
2023-04-12T06:56:11.724Z,96.56
2023-04-12T06:58:43.553Z,96.14
2023-04-12T07:01:15.297Z,96.47
2023-04-12T07:03:47.291Z,96.82
2023-04-12T07:06:25.586Z,97.33
2023-04-12T07:08:58.699Z,97.20
2023-04-12T07:11:31.720Z,96.35
2023-04-12T07:14:03.491Z,96.77
2023-04-12T07:16:35.339Z,96.45
2023-04-12T07:19:07.450Z,96.73
2023-04-12T07:21:39.178Z,96.49
2023-04-12T07:24:11.322Z,96.28
2023-04-12T07:26:43.275Z,95.84
2023-04-12T07:29:17.013Z,95.10
2023-04-12T07:31:48.936Z,94.74
2023-04-12T07:34:21.194Z,93.38
2023-04-12T07:36:53.260Z,92.51
2023-04-12T07:39:25.248Z,91.92
2023-04-12T07:41:57.201Z,92.04
2023-04-12T07:44:29.027Z,91.66
2023-04-12T07:47:01.230Z,90.50
2023-04-12T07:49:33.190Z,90.40
2023-04-12T07:52:05.280Z,90.37
2023-04-12T07:54:37.181Z,90.76
2023-04-12T07:57:09.967Z,90.57
2023-04-12T07:59:40.436Z,90.66
2023-04-12T08:02:12.829Z,90.63
2023-04-12T08:04:45.670Z,89.93
2023-04-12T08:07:15.969Z,90.45
2023-04-12T08:09:48.207Z,90.81
2023-04-12T08:12:21.244Z,89.87
2023-04-12T08:14:53.060Z,88.99
2023-04-12T08:17:27.556Z,88.84
2023-04-12T08:19:59.326Z,88.61
2023-04-12T08:22:31.440Z,86.88
2023-04-12T08:25:03.204Z,86.48
2023-04-12T08:27:35.066Z,88.33
2023-04-12T08:30:08.841Z,87.57
2023-04-12T08:32:41.576Z,86.48
2023-04-12T08:35:12.104Z,85.78
2023-04-12T08:37:44.659Z,83.89
2023-04-12T08:40:17.596Z,82.18
2023-04-12T08:42:47.798Z,81.87
2023-04-12T08:45:19.693Z,81.64
2023-04-12T08:47:52.025Z,82.42
2023-04-12T08:50:25.893Z,83.09
2023-04-12T08:52:59.021Z,83.95
2023-04-12T08:55:30.925Z,82.83
2023-04-12T08:58:07.434Z,81.25
2023-04-12T09:00:40.078Z,81.06
2023-04-12T09:03:12.269Z,81.00
2023-04-12T09:05:44.487Z,81.80
2023-04-12T09:08:17.434Z,80.97
2023-04-12T09:10:49.224Z,80.15
2023-04-12T09:13:34.484Z,78.40
2023-04-12T09:16:06.957Z,75.91
2023-04-12T09:18:51.203Z,74.99
2023-04-12T09:21:23.340Z,75.90
2023-04-12T09:24:11.665Z,75.12
2023-04-12T09:26:44.550Z,74.14
2023-04-12T09:29:26.476Z,73.72
2023-04-12T09:32:02.162Z,73.76
2023-04-12T09:34:36.051Z,75.08
2023-04-12T09:37:17.431Z,74.29
2023-04-12T09:39:49.965Z,72.79
2023-04-12T09:44:58.142Z,72.49
2023-04-12T09:47:41.673Z,71.79
2023-04-12T09:50:23.231Z,70.85
2023-04-12T09:52:56.425Z,69.98
2023-04-12T09:55:30.055Z,69.90
2023-04-12T09:58:05.570Z,70.14
2023-04-12T10:00:38.933Z,71.03
2023-04-12T10:03:11.531Z,70.33
2023-04-12T10:05:44.301Z,69.08
2023-04-12T10:08:17.898Z,69.21
2023-04-12T10:10:50.846Z,68.67
2023-04-12T10:13:25.931Z,68.17
2023-04-12T10:15:58.059Z,67.78
2023-04-12T10:18:31.094Z,67.82
2023-04-12T10:21:04.622Z,65.94
2023-04-12T10:23:36.905Z,65.41
2023-04-12T10:26:09.246Z,63.43
2023-04-12T10:28:41.758Z,63.45
2023-04-12T10:31:34.210Z,63.48
2023-04-12T10:34:06.921Z,61.75
2023-04-12T10:37:00.270Z,61.55
2023-04-12T10:39:40.538Z,62.05
2023-04-12T10:42:25.218Z,61.62
2023-04-12T10:45:00.995Z,62.42
2023-04-12T10:48:01.819Z,63.02
2023-04-12T10:50:35.436Z,64.05
2023-04-12T10:53:26.444Z,65.14
2023-04-12T10:55:58.567Z,65.95
2023-04-12T10:58:59.572Z,65.43
2023-04-12T11:01:38.351Z,65.13
2023-04-12T11:04:17.228Z,65.95
2023-04-12T11:07:09.731Z,64.75
2023-04-12T11:09:46.995Z,65.15
2023-04-12T11:12:30.097Z,65.12
2023-04-12T11:15:06.274Z,65.44
2023-04-12T11:17:57.913Z,66.46
2023-04-12T11:20:29.945Z,66.52
2023-04-12T11:23:06.004Z,67.12
2023-04-12T11:25:38.955Z,67.25
2023-04-12T11:28:27.863Z,68.36
2023-04-12T11:31:02.083Z,68.18
2023-04-12T11:33:38.287Z,68.36
2023-04-12T11:36:13.342Z,68.55
2023-04-12T11:38:46.381Z,68.60
2023-04-12T11:41:21.751Z,68.35
2023-04-12T11:43:57.005Z,68.28
2023-04-12T11:46:34.322Z,68.53
2023-04-12T11:49:06.651Z,68.69
2023-04-12T11:51:38.673Z,68.81
2023-04-12T11:54:11.372Z,69.09
2023-04-12T11:56:42.557Z,68.97
2023-04-12T11:59:14.734Z,69.63
2023-04-12T12:01:47.307Z,70.05
2023-04-12T12:04:19.754Z,68.85
2023-04-12T12:06:53.144Z,67.41
2023-04-12T12:09:26.127Z,65.80
2023-04-12T12:11:57.140Z,65.35
2023-04-12T12:14:32.389Z,64.88
2023-04-12T12:17:11.251Z,65.88
2023-04-12T12:19:44.470Z,65.97
2023-04-12T12:22:18.904Z,64.92
2023-04-12T12:24:55.957Z,64.59
2023-04-12T12:27:37.547Z,64.32
2023-04-12T12:30:13.317Z,63.43
2023-04-12T12:32:45.980Z,63.78
2023-04-12T12:35:16.664Z,64.88
2023-04-12T12:37:55.838Z,65.08
2023-04-12T12:40:33.702Z,62.41
2023-04-12T12:43:06.998Z,59.90
2023-04-12T12:45:40.706Z,60.83
2023-04-12T12:48:13.255Z,61.51
2023-04-12T12:50:47.071Z,61.09
2023-04-12T12:53:19.145Z,60.41
2023-04-12T12:55:51.495Z,59.04
2023-04-12T12:58:23.733Z,58.72
2023-04-12T13:00:56.167Z,57.68
2023-04-12T13:03:28.419Z,57.38
2023-04-12T13:06:01.091Z,58.14
2023-04-12T13:08:36.700Z,58.01
2023-04-12T13:11:09.728Z,56.93
2023-04-12T13:13:41.560Z,57.04
2023-04-12T13:16:13.566Z,57.12
2023-04-12T13:18:47.196Z,57.27
2023-04-12T13:21:19.362Z,57.41
2023-04-12T13:23:51.509Z,57.37
2023-04-12T13:26:25.653Z,57.68
2023-04-12T13:28:58.066Z,57.83
2023-04-12T13:31:30.547Z,56.94
2023-04-12T13:34:02.906Z,57.31
2023-04-12T13:36:35.033Z,57.82
2023-04-12T13:39:07.107Z,57.78
2023-04-12T13:41:39.121Z,57.34
2023-04-12T13:44:11.498Z,56.03
2023-04-12T13:46:43.976Z,55.41
2023-04-12T13:49:16.022Z,54.58
2023-04-12T13:51:48.027Z,54.07
2023-04-12T13:54:20.347Z,53.85
2023-04-12T13:56:52.378Z,54.10
2023-04-12T13:59:24.130Z,53.66
2023-04-12T14:01:56.620Z,53.78
2023-04-12T14:04:30.042Z,53.50
2023-04-12T14:07:02.822Z,53.35
2023-04-12T14:09:35.117Z,51.89
2023-04-12T14:12:07.178Z,51.83
2023-04-12T14:14:39.582Z,51.86
2023-04-12T14:17:10.328Z,51.33
2023-04-12T14:19:42.649Z,52.76
2023-04-12T14:22:14.640Z,51.26
2023-04-12T14:24:46.691Z,49.33
2023-04-12T14:27:18.620Z,49.23
2023-04-12T14:29:50.478Z,48.54
2023-04-12T14:32:22.816Z,47.44
2023-04-12T14:34:55.116Z,47.82
2023-04-12T14:37:27.592Z,47.82
2023-04-12T14:39:59.904Z,47.06
2023-04-12T14:42:31.837Z,46.50
2023-04-12T14:45:05.527Z,46.34
2023-04-12T14:47:37.741Z,47.17
2023-04-12T14:50:11.372Z,47.17
2023-04-12T14:52:43.301Z,46.91
2023-04-12T14:55:16.826Z,46.12
2023-04-12T14:57:48.878Z,46.40
2023-04-12T15:00:22.411Z,46.91
2023-04-12T15:02:55.349Z,47.57
2023-04-12T15:05:27.535Z,47.04
2023-04-12T15:07:59.490Z,46.24
2023-04-12T15:10:31.773Z,45.58
2023-04-12T15:13:03.753Z,45.78
2023-04-12T15:15:35.801Z,45.08
2023-04-12T15:18:07.910Z,44.16
2023-04-12T15:20:39.910Z,44.45
2023-04-12T15:23:12.342Z,46.15
2023-04-12T15:25:45.243Z,45.38
2023-04-12T15:28:17.147Z,45.39
2023-04-12T15:30:50.012Z,44.65
2023-04-12T15:33:22.356Z,45.13
2023-04-12T15:35:57.692Z,45.07
2023-04-12T15:38:30.506Z,43.89
2023-04-12T15:41:04.041Z,43.28
2023-04-12T15:43:36.581Z,43.19
2023-04-12T15:46:09.190Z,44.32
2023-04-12T15:48:39.838Z,44.91
2023-04-12T15:51:12.791Z,45.07
2023-04-12T15:53:44.650Z,45.15
2023-04-12T15:56:20.137Z,45.44
2023-04-12T15:58:52.260Z,44.78
2023-04-12T16:01:24.153Z,44.53
2023-04-12T16:03:56.388Z,43.95
2023-04-12T16:06:30.508Z,42.86
2023-04-12T16:09:05.118Z,42.60
2023-04-12T16:11:37.293Z,42.22
2023-04-12T16:14:09.327Z,41.82
2023-04-12T16:16:42.172Z,41.62
2023-04-12T16:19:14.488Z,42.29
2023-04-12T16:21:46.416Z,43.22
2023-04-12T16:24:18.760Z,43.75
2023-04-12T16:26:50.743Z,44.71
2023-04-12T16:29:23.168Z,46.05
2023-04-12T16:31:55.067Z,46.75
2023-04-12T16:34:27.195Z,48.12
2023-04-12T16:36:59.360Z,49.29
2023-04-12T16:39:32.288Z,50.84
2023-04-12T16:42:06.250Z,51.68
2023-04-12T16:44:38.768Z,52.11
2023-04-12T16:47:11.419Z,52.13
2023-04-12T16:49:43.544Z,52.09
2023-04-12T16:52:15.513Z,51.71
2023-04-12T16:54:47.545Z,51.61
2023-04-12T16:57:19.695Z,52.00
2023-04-12T16:59:52.098Z,51.85
2023-04-12T17:02:25.091Z,52.21
2023-04-12T17:04:57.776Z,52.29
2023-04-12T17:07:30.370Z,52.53
2023-04-12T17:10:02.408Z,52.99
2023-04-12T17:12:34.554Z,53.99
2023-04-12T17:15:10.468Z,55.15
2023-04-12T17:17:43.409Z,55.88
2023-04-12T17:20:16.312Z,56.18
2023-04-12T17:22:47.560Z,56.59
2023-04-12T17:25:25.666Z,56.83
2023-04-12T17:28:00.235Z,56.56
2023-04-12T17:30:32.798Z,57.10
2023-04-12T17:33:07.588Z,57.46
2023-04-12T17:35:40.495Z,57.84
2023-04-12T17:38:10.908Z,58.09
2023-04-12T17:40:43.021Z,57.80
2023-04-12T17:43:14.935Z,58.88
2023-04-12T17:45:46.870Z,59.01
2023-04-12T17:48:19.599Z,59.25
2023-04-12T17:50:50.337Z,59.43
2023-04-12T17:53:22.712Z,59.45
2023-04-12T17:55:54.695Z,59.88
2023-04-12T17:58:27.878Z,59.83
2023-04-12T18:01:00.643Z,60.28
2023-04-12T18:03:34.300Z,60.40
2023-04-12T18:06:06.976Z,60.72
2023-04-12T18:08:39.439Z,60.84
2023-04-12T18:11:13.073Z,60.51
2023-04-12T18:13:45.146Z,60.37
2023-04-12T18:16:17.443Z,60.88
2023-04-12T18:18:50.844Z,60.78
2023-04-12T18:21:23.131Z,61.08
2023-04-12T18:23:55.363Z,61.07
2023-04-12T18:26:27.985Z,60.82
2023-04-12T18:29:00.687Z,61.11
2023-04-12T18:31:33.577Z,60.54
2023-04-12T18:34:05.999Z,60.73
2023-04-12T18:36:38.469Z,60.51
2023-04-12T18:39:11.105Z,60.69
2023-04-12T18:41:43.454Z,60.74
2023-04-12T18:44:17.238Z,60.90
2023-04-12T18:46:49.156Z,61.21
2023-04-12T18:49:22.034Z,61.28
2023-04-12T18:51:58.278Z,61.45
2023-04-12T18:54:30.723Z,61.60
2023-04-12T18:57:03.639Z,62.07
2023-04-12T18:59:36.151Z,62.66
2023-04-12T19:02:09.446Z,62.38
2023-04-12T19:04:42.114Z,62.37
2023-04-12T19:07:15.347Z,62.88
2023-04-12T19:09:48.044Z,63.28
2023-04-12T19:12:21.420Z,63.39
2023-04-12T19:14:53.367Z,63.08
2023-04-12T19:17:27.852Z,63.11
2023-04-12T19:20:00.201Z,63.52
2023-04-12T19:22:32.402Z,64.02
2023-04-12T19:25:05.204Z,63.64
2023-04-12T19:27:37.538Z,63.33
2023-04-12T19:30:13.074Z,63.63
2023-04-12T19:32:45.534Z,63.71
2023-04-12T19:35:17.940Z,63.73
2023-04-12T19:37:50.307Z,63.55
2023-04-12T19:40:22.676Z,63.65
2023-04-12T19:42:55.000Z,63.77
2023-04-12T19:45:28.001Z,63.72
2023-04-12T19:48:00.206Z,63.68
2023-04-12T19:50:32.638Z,63.56
2023-04-12T19:53:06.233Z,64.15
2023-04-12T19:55:39.296Z,64.12
2023-04-12T19:58:13.809Z,63.93
2023-04-12T20:00:51.790Z,64.39
2023-04-12T20:03:23.937Z,64.18
2023-04-12T20:05:58.046Z,64.23
2023-04-12T20:08:29.896Z,64.76
2023-04-12T20:11:02.516Z,64.88
2023-04-12T20:13:36.200Z,64.87
2023-04-12T20:16:10.068Z,64.96
2023-04-12T20:18:42.043Z,64.83
2023-04-12T20:21:13.797Z,64.80
2023-04-12T20:23:47.107Z,64.92
2023-04-12T20:26:20.556Z,65.04
2023-04-12T20:28:53.091Z,64.53
2023-04-12T20:31:25.968Z,64.74
2023-04-12T20:33:57.237Z,64.88
2023-04-12T20:36:30.119Z,64.73
2023-04-12T20:39:02.488Z,64.90
2023-04-12T20:41:38.207Z,65.21
2023-04-12T20:44:10.039Z,65.14
2023-04-12T20:46:41.873Z,65.35
2023-04-12T20:49:14.607Z,65.62
2023-04-12T20:51:46.802Z,65.58
2023-04-12T20:54:18.573Z,65.45
2023-04-12T20:56:50.354Z,65.27
2023-04-12T20:59:22.891Z,65.40
2023-04-12T21:01:54.833Z,65.54
2023-04-12T21:04:27.810Z,65.64
2023-04-12T21:06:59.684Z,65.85
2023-04-12T21:09:32.673Z,66.53
2023-04-12T21:12:08.545Z,66.70
2023-04-12T21:14:40.364Z,66.87
2023-04-12T21:17:13.117Z,66.88
2023-04-12T21:19:44.956Z,67.47
2023-04-12T21:22:17.129Z,67.40
2023-04-12T21:24:50.075Z,67.48
2023-04-12T21:27:22.082Z,67.58
2023-04-12T21:29:53.841Z,67.58
2023-04-12T21:32:26.325Z,67.85
2023-04-12T21:34:59.011Z,68.64
2023-04-12T21:37:31.228Z,68.87
2023-04-12T21:40:07.617Z,69.48
2023-04-12T21:42:40.423Z,70.04
2023-04-12T21:45:13.037Z,70.11
2023-04-12T21:47:45.357Z,70.02
2023-04-12T21:50:17.109Z,70.28
2023-04-12T21:52:48.871Z,70.58
2023-04-12T21:55:21.272Z,71.13
2023-04-12T21:57:53.335Z,71.10
2023-04-12T22:00:27.226Z,71.73
2023-04-12T22:02:59.976Z,72.06
2023-04-12T22:05:31.996Z,72.47
2023-04-12T22:08:03.753Z,72.51
2023-04-12T22:10:35.767Z,73.34
2023-04-12T22:13:09.911Z,73.58
2023-04-12T22:15:42.222Z,74.07
2023-04-12T22:18:14.113Z,74.92
2023-04-12T22:20:46.481Z,75.31
2023-04-12T22:23:19.327Z,75.32
2023-04-12T22:25:51.076Z,75.77
2023-04-12T22:28:22.911Z,76.11
2023-04-12T22:30:57.021Z,76.18
2023-04-12T22:33:29.926Z,76.05
2023-04-12T22:36:02.082Z,76.15
2023-04-12T22:38:35.190Z,76.62
2023-04-12T22:41:07.672Z,76.89
2023-04-12T22:43:42.138Z,77.07
2023-04-12T22:46:16.573Z,76.62
2023-04-12T22:48:49.198Z,76.36
2023-04-12T22:51:21.078Z,76.45
2023-04-12T22:53:52.894Z,76.58
2023-04-12T22:56:25.537Z,76.25
2023-04-12T22:58:56.041Z,76.38
2023-04-12T23:01:29.267Z,76.52
2023-04-12T23:04:02.524Z,76.16
2023-04-12T23:06:34.347Z,76.17
2023-04-12T23:09:06.512Z,76.53
2023-04-12T23:11:39.728Z,76.41
2023-04-12T23:14:12.984Z,76.09
2023-04-12T23:16:46.157Z,75.93
2023-04-12T23:19:18.255Z,76.28
2023-04-12T23:21:50.037Z,76.54
2023-04-12T23:24:21.777Z,76.61
2023-04-12T23:26:53.558Z,76.73
2023-04-12T23:29:25.958Z,77.05
2023-04-12T23:31:58.222Z,76.87
2023-04-12T23:34:30.733Z,76.53
2023-04-12T23:37:02.520Z,76.97
2023-04-12T23:39:35.246Z,76.67
2023-04-12T23:42:07.184Z,77.03
2023-04-12T23:44:38.974Z,77.25
2023-04-12T23:47:10.701Z,77.31
2023-04-12T23:49:42.532Z,77.14
2023-04-12T23:52:14.607Z,77.54
2023-04-12T23:54:46.414Z,77.62
2023-04-12T23:57:18.269Z,77.74
2023-04-12T23:59:50.222Z,77.51
